createdAt,value
2017-09-03T00:00:20.499Z,11.70
2017-09-03T00:02:48.834Z,11.70
2017-09-03T00:05:17.207Z,11.70
2017-09-03T00:07:45.524Z,11.70
2017-09-03T00:10:14.634Z,11.70
2017-09-03T00:12:43.149Z,11.70
2017-09-03T00:15:11.834Z,11.70
2017-09-03T00:17:40.178Z,11.70
2017-09-03T00:20:08.490Z,11.70
2017-09-03T00:22:36.835Z,11.70
2017-09-03T00:25:05.158Z,11.70
2017-09-03T00:27:33.506Z,11.60
2017-09-03T00:30:01.823Z,11.70
2017-09-03T00:32:30.181Z,11.70
2017-09-03T00:34:58.537Z,11.70
2017-09-03T00:37:26.887Z,11.70
2017-09-03T00:39:55.237Z,11.70
2017-09-03T00:42:23.598Z,11.70
2017-09-03T00:44:51.976Z,11.60
2017-09-03T00:47:20.351Z,11.60
2017-09-03T00:49:48.660Z,11.60
2017-09-03T00:52:17.004Z,11.50
2017-09-03T00:54:45.383Z,11.50
2017-09-03T00:57:13.674Z,11.50
2017-09-03T00:59:41.976Z,11.50
2017-09-03T01:02:10.299Z,11.50
2017-09-03T01:04:38.607Z,11.40
2017-09-03T01:07:06.939Z,11.40
2017-09-03T01:09:35.247Z,11.40
2017-09-03T01:12:03.588Z,11.40
2017-09-03T01:14:31.902Z,11.30
2017-09-03T01:17:00.305Z,11.30
2017-09-03T01:19:28.608Z,11.30
2017-09-03T01:21:56.919Z,11.30
2017-09-03T01:24:25.247Z,11.30
2017-09-03T01:26:53.563Z,11.30
2017-09-03T01:29:21.914Z,11.30
2017-09-03T01:31:50.215Z,11.30
2017-09-03T01:34:18.524Z,11.30
2017-09-03T01:36:46.874Z,11.30
2017-09-03T01:39:15.219Z,11.30
2017-09-03T01:41:43.556Z,11.30
2017-09-03T01:44:11.919Z,11.30
2017-09-03T01:46:40.286Z,11.40
2017-09-03T01:49:08.603Z,11.30
2017-09-03T01:51:36.990Z,11.30
2017-09-03T01:54:05.292Z,11.30
2017-09-03T01:56:33.582Z,11.30
2017-09-03T01:59:01.930Z,11.30
2017-09-03T02:01:30.242Z,11.30
2017-09-03T02:03:58.554Z,11.30
2017-09-03T02:06:26.893Z,11.20
2017-09-03T02:08:55.267Z,11.20
2017-09-03T02:11:23.581Z,11.20
2017-09-03T02:13:51.924Z,11.20
2017-09-03T02:16:20.258Z,11.10
2017-09-03T02:18:48.570Z,11.00
2017-09-03T02:21:16.909Z,11.10
2017-09-03T02:23:45.223Z,11.10
2017-09-03T02:26:13.568Z,11.00
2017-09-03T02:28:41.864Z,11.00
2017-09-03T02:31:10.196Z,11.00
2017-09-03T02:33:38.508Z,11.00
2017-09-03T02:36:06.859Z,11.00
2017-09-03T02:38:35.171Z,11.00
2017-09-03T02:41:03.513Z,10.90
2017-09-03T02:43:31.819Z,11.00
2017-09-03T02:46:00.105Z,11.00
2017-09-03T02:48:28.439Z,11.00
2017-09-03T02:50:56.729Z,11.00
2017-09-03T02:53:25.029Z,10.90
2017-09-03T02:55:53.362Z,10.90
2017-09-03T02:58:21.731Z,10.90
2017-09-03T03:00:50.019Z,10.90
2017-09-03T03:03:18.370Z,10.80
2017-09-03T03:05:46.667Z,10.80
2017-09-03T03:08:15.007Z,10.80
2017-09-03T03:10:43.359Z,10.80
2017-09-03T03:13:11.713Z,10.80
2017-09-03T03:15:41.069Z,10.80
2017-09-03T03:18:09.399Z,10.80
2017-09-03T03:20:38.486Z,10.70
2017-09-03T03:23:06.843Z,10.70
2017-09-03T03:25:35.144Z,10.70
2017-09-03T03:28:03.442Z,10.70
2017-09-03T03:30:31.795Z,10.70
2017-09-03T03:33:00.102Z,10.60
2017-09-03T03:35:28.448Z,10.70
2017-09-03T03:37:57.546Z,10.70
2017-09-03T03:40:26.657Z,10.70
2017-09-03T03:42:54.956Z,10.60
2017-09-03T03:45:24.052Z,10.60
2017-09-03T03:47:52.370Z,10.60
2017-09-03T03:50:20.679Z,10.60
2017-09-03T03:52:49.037Z,10.60
2017-09-03T03:55:17.324Z,10.60
2017-09-03T03:57:45.626Z,10.60
2017-09-03T04:00:14.752Z,10.50
2017-09-03T04:02:43.047Z,10.50
2017-09-03T04:05:11.355Z,10.60
2017-09-03T04:07:39.707Z,10.50
2017-09-03T04:10:08.011Z,10.50
2017-09-03T04:12:36.327Z,10.50
2017-09-03T04:15:04.663Z,10.50
2017-09-03T04:17:32.965Z,10.50
2017-09-03T04:20:07.077Z,10.50
2017-09-03T04:22:35.372Z,10.50
2017-09-03T04:25:03.683Z,10.50
2017-09-03T04:27:32.028Z,10.50
2017-09-03T04:30:00.358Z,10.50
2017-09-03T04:32:28.690Z,10.50
2017-09-03T04:34:57.031Z,10.50
2017-09-03T04:37:25.334Z,10.50
2017-09-03T04:39:53.699Z,10.40
2017-09-03T04:42:22.022Z,10.40
2017-09-03T04:44:50.354Z,10.40
2017-09-03T04:47:18.716Z,10.30
2017-09-03T04:49:47.011Z,10.20
2017-09-03T04:52:15.299Z,10.20
2017-09-03T04:54:43.648Z,10.20
2017-09-03T04:57:12.052Z,10.20
2017-09-03T04:59:40.343Z,10.20
2017-09-03T05:02:08.665Z,10.20
2017-09-03T05:04:36.972Z,10.20
2017-09-03T05:07:05.286Z,10.20
2017-09-03T05:09:33.619Z,10.20
2017-09-03T05:12:01.970Z,10.20
2017-09-03T05:14:30.272Z,10.20
2017-09-03T05:16:58.619Z,10.30
2017-09-03T05:19:26.925Z,10.40
2017-09-03T05:21:55.246Z,10.40
2017-09-03T05:24:23.607Z,10.50
2017-09-03T05:26:51.935Z,10.60
2017-09-03T05:29:20.238Z,10.60
2017-09-03T05:31:48.566Z,10.60
2017-09-03T05:34:16.899Z,10.70
2017-09-03T05:36:45.243Z,10.80
2017-09-03T05:39:13.576Z,10.80
2017-09-03T05:41:41.878Z,10.90
2017-09-03T05:44:10.230Z,10.90
2017-09-03T05:46:38.526Z,11.00
2017-09-03T05:49:06.818Z,11.00
2017-09-03T05:51:35.164Z,11.20
2017-09-03T05:54:03.466Z,11.20
2017-09-03T05:56:31.876Z,11.20
2017-09-03T05:59:00.247Z,11.30
2017-09-03T06:01:28.623Z,11.40
2017-09-03T06:03:56.995Z,11.40
2017-09-03T06:06:25.295Z,11.40
2017-09-03T06:08:53.664Z,11.40
2017-09-03T06:11:21.975Z,11.50
2017-09-03T06:13:50.299Z,11.50
2017-09-03T06:16:18.638Z,11.60
2017-09-03T06:18:46.967Z,11.60
2017-09-03T06:21:15.274Z,11.70
2017-09-03T06:23:43.616Z,11.70
2017-09-03T06:26:11.915Z,11.80
2017-09-03T06:28:40.223Z,11.90
2017-09-03T06:31:08.554Z,11.90
2017-09-03T06:33:37.628Z,12.10
2017-09-03T06:36:05.954Z,12.00
2017-09-03T06:38:34.277Z,12.10
2017-09-03T06:41:02.638Z,12.20
2017-09-03T06:43:30.948Z,12.30
2017-09-03T06:45:59.245Z,12.40
2017-09-03T06:48:27.578Z,12.50
2017-09-03T06:50:55.985Z,12.60
2017-09-03T06:53:24.311Z,12.70
2017-09-03T06:55:52.617Z,12.80
2017-09-03T06:58:20.911Z,13.00
2017-09-03T07:00:49.267Z,13.10
2017-09-03T07:03:17.595Z,13.20
2017-09-03T07:05:45.910Z,13.20
2017-09-03T07:08:14.248Z,13.30
2017-09-03T07:10:42.532Z,13.40
2017-09-03T07:13:10.834Z,13.40
2017-09-03T07:15:39.172Z,13.40
2017-09-03T07:18:07.474Z,13.50
2017-09-03T07:20:35.796Z,13.60
2017-09-03T07:23:04.895Z,13.80
2017-09-03T07:25:33.971Z,13.90
2017-09-03T07:28:02.310Z,13.90
2017-09-03T07:30:30.621Z,14.00
2017-09-03T07:32:58.918Z,14.10
2017-09-03T07:35:28.082Z,14.40
2017-09-03T07:37:56.406Z,14.30
2017-09-03T07:40:24.719Z,14.50
2017-09-03T07:42:53.045Z,14.50
2017-09-03T07:45:21.366Z,14.50
2017-09-03T07:47:49.699Z,14.40
2017-09-03T07:50:18.775Z,14.50
2017-09-03T07:52:47.130Z,14.40
2017-09-03T07:55:15.429Z,14.60
2017-09-03T07:57:43.771Z,14.60
2017-09-03T08:00:12.325Z,14.70
2017-09-03T08:02:40.632Z,14.80
2017-09-03T08:05:08.978Z,14.80
2017-09-03T08:07:37.311Z,14.90
2017-09-03T08:10:05.635Z,14.90
2017-09-03T08:12:33.934Z,15.00
2017-09-03T08:15:02.294Z,15.00
2017-09-03T08:17:30.620Z,15.20
2017-09-03T08:19:58.951Z,15.30
2017-09-03T08:22:27.251Z,15.30
2017-09-03T08:24:55.608Z,15.40
2017-09-03T08:27:23.967Z,15.50
2017-09-03T08:29:52.318Z,15.60
2017-09-03T08:32:20.682Z,15.70
2017-09-03T08:34:49.095Z,15.80
2017-09-03T08:37:17.435Z,15.90
2017-09-03T08:39:45.967Z,15.90
2017-09-03T08:42:14.319Z,15.90
2017-09-03T08:44:42.648Z,15.90
2017-09-03T08:47:11.032Z,16.00
2017-09-03T08:49:39.334Z,16.10
2017-09-03T08:52:07.623Z,16.20
2017-09-03T08:54:35.942Z,16.30
2017-09-03T08:57:04.263Z,16.40
2017-09-03T08:59:32.562Z,16.40
2017-09-03T09:02:01.705Z,16.60
2017-09-03T09:04:30.015Z,16.60
2017-09-03T09:06:58.299Z,16.60
2017-09-03T09:09:27.425Z,16.80
2017-09-03T09:11:55.694Z,16.70
2017-09-03T09:14:24.028Z,16.80
2017-09-03T09:16:53.163Z,17.00
2017-09-03T09:19:21.497Z,17.00
2017-09-03T09:21:49.808Z,17.20
2017-09-03T09:24:18.183Z,17.30
2017-09-03T09:26:47.418Z,17.40
2017-09-03T09:29:15.765Z,17.40
2017-09-03T09:31:44.111Z,17.40
2017-09-03T09:34:12.606Z,17.50
2017-09-03T09:36:41.075Z,17.60
2017-09-03T09:39:09.852Z,17.70
2017-09-03T09:41:38.207Z,17.80
2017-09-03T09:44:06.697Z,17.80
2017-09-03T09:46:35.087Z,17.80
2017-09-03T09:49:04.214Z,18.00
2017-09-03T09:51:32.514Z,17.90
2017-09-03T09:54:00.839Z,18.10
2017-09-03T09:56:29.134Z,18.10
2017-09-03T09:58:57.486Z,18.10
2017-09-03T10:01:25.905Z,18.00
2017-09-03T10:03:54.270Z,18.00
2017-09-03T10:06:22.618Z,18.00
2017-09-03T10:08:50.926Z,18.10
2017-09-03T10:11:19.298Z,18.20
2017-09-03T10:13:47.674Z,18.40
2017-09-03T10:16:16.071Z,18.50
2017-09-03T10:18:44.434Z,18.80
2017-09-03T10:21:12.791Z,19.10
2017-09-03T10:23:41.119Z,19.40
2017-09-03T10:26:09.442Z,19.60
2017-09-03T10:28:37.768Z,19.60
2017-09-03T10:31:06.848Z,19.20
2017-09-03T10:33:35.216Z,19.10
2017-09-03T10:36:03.671Z,19.00
2017-09-03T10:38:32.075Z,18.90
2017-09-03T10:41:00.408Z,19.00
2017-09-03T10:43:28.734Z,19.20
2017-09-03T10:45:57.855Z,19.50
2017-09-03T10:48:26.221Z,19.50
2017-09-03T10:50:54.678Z,19.70
2017-09-03T10:53:23.012Z,19.70
2017-09-03T10:55:52.662Z,19.60
2017-09-03T10:58:21.614Z,19.50
2017-09-03T11:00:49.931Z,19.50
2017-09-03T11:03:18.312Z,19.30
2017-09-03T11:05:46.634Z,19.00
2017-09-03T11:08:15.084Z,18.90
2017-09-03T11:10:43.435Z,19.00
2017-09-03T11:13:11.761Z,19.20
2017-09-03T11:15:40.207Z,19.50
2017-09-03T11:18:08.514Z,19.70
2017-09-03T11:20:36.869Z,19.60
2017-09-03T11:23:05.226Z,19.30
2017-09-03T11:25:33.569Z,18.90
2017-09-03T11:28:01.869Z,18.60
2017-09-03T11:30:30.190Z,18.60
2017-09-03T11:32:58.544Z,18.70
2017-09-03T11:35:26.851Z,18.80
2017-09-03T11:37:55.195Z,18.70
2017-09-03T11:40:23.676Z,18.80
2017-09-03T11:42:52.128Z,18.90
2017-09-03T11:45:20.640Z,19.10
2017-09-03T11:47:49.015Z,19.30
2017-09-03T11:50:17.343Z,19.50
2017-09-03T11:52:45.655Z,19.60
2017-09-03T11:55:14.068Z,19.50
2017-09-03T11:57:42.422Z,19.10
2017-09-03T12:00:10.755Z,19.00
2017-09-03T12:02:39.071Z,18.80
2017-09-03T12:05:07.435Z,18.90
2017-09-03T12:07:35.730Z,19.00
2017-09-03T12:10:04.018Z,19.10
2017-09-03T12:12:32.391Z,19.10
2017-09-03T12:15:00.769Z,19.20
2017-09-03T12:17:29.073Z,19.40
2017-09-03T12:19:57.424Z,19.50
2017-09-03T12:22:25.759Z,19.70
2017-09-03T12:24:54.081Z,19.80
2017-09-03T12:27:22.453Z,19.70
2017-09-03T12:29:50.820Z,19.70
2017-09-03T12:32:19.154Z,19.80
2017-09-03T12:34:47.437Z,19.90
2017-09-03T12:37:15.767Z,20.10
2017-09-03T12:39:44.162Z,20.40
2017-09-03T12:42:12.510Z,20.30
2017-09-03T12:44:40.936Z,20.20
2017-09-03T12:47:09.277Z,20.20
2017-09-03T12:49:37.709Z,20.20
2017-09-03T12:52:06.855Z,20.20
2017-09-03T12:54:35.170Z,20.10
2017-09-03T12:57:03.520Z,20.10
2017-09-03T12:59:32.268Z,20.00
2017-09-03T13:02:01.330Z,19.60
2017-09-03T13:04:29.640Z,19.50
2017-09-03T13:06:57.943Z,19.20
2017-09-03T13:09:26.629Z,19.20
2017-09-03T13:11:55.013Z,19.10
2017-09-03T13:14:24.093Z,19.30
2017-09-03T13:16:52.473Z,19.30
2017-09-03T13:19:20.798Z,19.50
2017-09-03T13:21:49.138Z,19.60
2017-09-03T13:24:17.466Z,19.60
2017-09-03T13:26:45.796Z,19.60
2017-09-03T13:29:14.163Z,19.80
2017-09-03T13:31:42.540Z,19.90
2017-09-03T13:34:10.909Z,20.00
2017-09-03T13:36:39.300Z,20.00
2017-09-03T13:39:07.587Z,20.00
2017-09-03T13:41:35.878Z,19.90
2017-09-03T13:44:04.223Z,19.90
2017-09-03T13:46:32.603Z,20.10
2017-09-03T13:49:01.659Z,20.20
2017-09-03T13:51:29.959Z,20.20
2017-09-03T13:53:58.312Z,20.30
2017-09-03T13:56:26.606Z,20.50
2017-09-03T13:58:54.947Z,20.70
2017-09-03T14:01:23.234Z,20.80
2017-09-03T14:03:51.587Z,20.80
2017-09-03T14:06:19.937Z,20.80
2017-09-03T14:08:48.247Z,20.70
2017-09-03T14:11:16.559Z,20.60
2017-09-03T14:13:44.973Z,20.70
2017-09-03T14:16:13.269Z,20.80
2017-09-03T14:18:41.558Z,20.70
2017-09-03T14:21:09.984Z,20.50
2017-09-03T14:23:38.366Z,20.50
2017-09-03T14:26:06.847Z,20.50
2017-09-03T14:28:36.048Z,20.40
2017-09-03T14:31:04.399Z,20.20
2017-09-03T14:33:32.749Z,20.00
2017-09-03T14:36:02.303Z,20.00
2017-09-03T14:38:30.594Z,20.10
2017-09-03T14:40:58.959Z,20.20
2017-09-03T14:43:27.317Z,20.30
2017-09-03T14:45:55.612Z,20.40
2017-09-03T14:48:23.988Z,20.40
2017-09-03T14:50:52.279Z,20.50
2017-09-03T14:53:20.604Z,20.60
2017-09-03T14:55:49.017Z,20.60
2017-09-03T14:58:17.306Z,20.70
2017-09-03T15:00:45.606Z,20.70
2017-09-03T15:03:13.948Z,20.80
2017-09-03T15:05:42.325Z,20.90
2017-09-03T15:08:10.646Z,21.00
2017-09-03T15:10:38.935Z,21.00
2017-09-03T15:13:07.254Z,21.20
2017-09-03T15:15:35.603Z,21.20
2017-09-03T15:18:04.028Z,21.30
2017-09-03T15:20:32.420Z,21.20
2017-09-03T15:23:00.917Z,21.10
2017-09-03T15:25:29.262Z,21.00
2017-09-03T15:27:57.612Z,21.10
2017-09-03T15:30:25.955Z,21.00
2017-09-03T15:32:54.274Z,20.90
2017-09-03T15:35:22.676Z,21.00
2017-09-03T15:37:51.746Z,21.20
2017-09-03T15:40:20.091Z,21.20
2017-09-03T15:42:48.560Z,21.40
2017-09-03T15:45:16.839Z,21.60
2017-09-03T15:47:45.262Z,21.80
2017-09-03T15:50:13.609Z,21.80
2017-09-03T15:52:41.960Z,21.80
2017-09-03T15:55:10.288Z,21.80
2017-09-03T15:57:38.573Z,21.90
2017-09-03T16:00:06.899Z,21.80
2017-09-03T16:02:35.205Z,21.90
2017-09-03T16:05:03.530Z,21.70
2017-09-03T16:07:32.715Z,21.00
2017-09-03T16:10:01.396Z,21.00
2017-09-03T16:12:29.767Z,20.80
2017-09-03T16:14:58.091Z,20.50
2017-09-03T16:17:26.426Z,20.20
2017-09-03T16:19:55.474Z,20.00
2017-09-03T16:22:24.004Z,20.00
2017-09-03T16:24:52.391Z,19.70
2017-09-03T16:27:20.734Z,19.60
2017-09-03T16:29:49.023Z,19.40
2017-09-03T16:32:17.324Z,19.30
2017-09-03T16:34:45.606Z,19.30
2017-09-03T16:37:13.928Z,19.20
2017-09-03T16:39:42.231Z,19.20
2017-09-03T16:42:10.537Z,19.20
2017-09-03T16:44:38.826Z,19.20
2017-09-03T16:47:07.147Z,19.30
2017-09-03T16:49:35.423Z,19.30
2017-09-03T16:52:03.756Z,19.30
2017-09-03T16:54:32.058Z,19.30
2017-09-03T16:57:00.392Z,19.20
2017-09-03T16:59:28.748Z,19.20
2017-09-03T17:01:57.071Z,19.10
2017-09-03T17:04:25.370Z,18.90
2017-09-03T17:06:53.691Z,18.90
2017-09-03T17:09:22.006Z,18.80
2017-09-03T17:11:50.343Z,18.80
2017-09-03T17:14:18.647Z,18.70
2017-09-03T17:16:46.967Z,18.70
2017-09-03T17:19:15.251Z,18.60
2017-09-03T17:21:43.695Z,18.60
2017-09-03T17:24:11.975Z,18.60
2017-09-03T17:26:40.301Z,18.60
2017-09-03T17:29:08.657Z,18.60
2017-09-03T17:31:39.487Z,18.50
2017-09-03T17:34:08.586Z,18.30
2017-09-03T17:50:04.799Z,18.00
2017-09-03T17:52:33.206Z,17.90
2017-09-03T17:55:01.486Z,17.90
2017-09-03T17:57:29.787Z,17.80
2017-09-03T17:59:58.135Z,17.80
2017-09-03T18:02:26.463Z,17.70
2017-09-03T18:04:54.818Z,17.70
2017-09-03T18:07:23.127Z,17.60
2017-09-03T18:09:51.469Z,17.60
2017-09-03T18:12:19.778Z,17.50
2017-09-03T18:14:48.255Z,17.40
2017-09-03T18:17:16.696Z,17.30
2017-09-03T18:19:44.992Z,17.20
2017-09-03T18:22:13.321Z,17.10
2017-09-03T18:24:41.634Z,17.00
2017-09-03T18:27:09.947Z,16.90
2017-09-03T18:29:43.802Z,16.90
2017-09-03T18:32:12.139Z,16.80
2017-09-03T18:34:40.422Z,16.70
2017-09-03T18:37:21.600Z,16.60
2017-09-03T18:39:53.526Z,16.50
2017-09-03T18:42:21.864Z,16.40
2017-09-03T18:44:50.196Z,16.40
2017-09-03T18:47:18.666Z,16.30
2017-09-03T18:49:47.462Z,16.20
2017-09-03T18:52:18.367Z,16.20
2017-09-03T18:54:46.684Z,16.10
2017-09-03T18:57:14.979Z,16.00
2017-09-03T18:59:50.882Z,15.90
2017-09-03T19:02:19.666Z,15.90
2017-09-03T19:04:49.582Z,15.80
2017-09-03T19:07:17.894Z,15.70
2017-09-03T19:09:46.346Z,15.70
2017-09-03T19:12:14.635Z,15.70
2017-09-03T19:14:43.147Z,15.60
2017-09-03T19:17:11.472Z,15.60
2017-09-03T19:19:39.789Z,15.50
2017-09-03T19:22:08.142Z,15.40
2017-09-03T19:24:36.464Z,15.40
2017-09-03T19:27:04.807Z,15.30
2017-09-03T19:29:33.124Z,15.30
2017-09-03T19:32:01.465Z,15.20
2017-09-03T19:34:30.556Z,15.20
2017-09-03T19:36:59.056Z,15.10
2017-09-03T19:39:27.400Z,15.10
2017-09-03T19:41:55.811Z,15.00
2017-09-03T19:44:24.187Z,15.00
2017-09-03T19:46:52.518Z,14.90
2017-09-03T19:49:20.863Z,14.90
2017-09-03T19:51:49.198Z,14.90
2017-09-03T19:54:17.780Z,14.80
2017-09-03T19:56:46.193Z,14.80
2017-09-03T19:59:14.486Z,14.80
2017-09-03T20:04:17.509Z,14.70
2017-09-03T20:06:45.848Z,14.70
2017-09-03T20:09:14.166Z,14.60
2017-09-03T20:11:42.525Z,14.60
2017-09-03T20:14:10.867Z,14.60
2017-09-03T20:16:39.280Z,14.50
2017-09-03T20:19:07.655Z,14.50
2017-09-03T20:21:36.013Z,14.50
2017-09-03T20:24:04.382Z,14.50
2017-09-03T20:26:32.972Z,14.50
2017-09-03T20:29:01.550Z,14.40
2017-09-03T20:31:29.866Z,14.40
2017-09-03T20:33:58.318Z,14.40
2017-09-03T20:36:26.608Z,14.30
2017-09-03T20:38:54.963Z,14.20
2017-09-03T20:41:23.263Z,14.20
2017-09-03T20:43:51.755Z,14.20
2017-09-03T20:46:20.097Z,14.10
2017-09-03T20:48:48.798Z,14.10
2017-09-03T20:51:17.164Z,14.10
2017-09-03T20:53:45.520Z,14.10
2017-09-03T20:56:14.067Z,14.00
2017-09-03T20:58:42.507Z,14.00
2017-09-03T21:01:10.978Z,13.90
2017-09-03T21:03:39.276Z,13.90
2017-09-03T21:06:07.610Z,13.90
2017-09-03T21:08:35.896Z,13.90
2017-09-03T21:11:04.389Z,13.80
2017-09-03T21:13:32.739Z,13.80
2017-09-03T21:16:01.271Z,13.80
2017-09-03T21:21:04.231Z,13.80
2017-09-03T21:23:32.633Z,13.80
2017-09-03T21:26:01.003Z,13.70
2017-09-03T21:28:30.600Z,13.70
2017-09-03T21:30:59.726Z,13.60
2017-09-03T21:33:28.050Z,13.60
2017-09-03T21:35:56.458Z,13.60
2017-09-03T21:38:24.947Z,13.60
2017-09-03T21:40:53.323Z,13.60
2017-09-03T21:43:21.641Z,13.50
2017-09-03T21:45:50.073Z,13.50
2017-09-03T21:48:18.416Z,13.50
2017-09-03T21:50:46.835Z,13.50
2017-09-03T21:53:15.215Z,13.50
2017-09-03T21:55:43.786Z,13.40
2017-09-03T21:58:12.173Z,13.40
2017-09-03T22:00:40.556Z,13.40
2017-09-03T22:03:08.907Z,13.40
2017-09-03T22:05:37.316Z,13.40
2017-09-03T22:08:05.684Z,13.30
2017-09-03T22:10:34.006Z,13.30
2017-09-03T22:13:02.672Z,13.30
2017-09-03T22:15:31.031Z,13.20
2017-09-03T22:17:59.319Z,13.20
2017-09-03T22:20:27.684Z,13.20
2017-09-03T22:22:56.040Z,13.20
2017-09-03T22:25:24.362Z,13.10
2017-09-03T22:27:52.685Z,13.10
2017-09-03T22:30:21.086Z,13.10
2017-09-03T22:32:49.460Z,13.10
2017-09-03T22:35:17.759Z,13.10
2017-09-03T22:37:46.114Z,13.00
2017-09-03T22:40:14.527Z,13.00
2017-09-03T22:42:42.820Z,13.00
2017-09-03T22:45:11.155Z,13.00
2017-09-03T22:47:39.522Z,13.00
2017-09-03T22:50:07.907Z,12.90
2017-09-03T22:52:36.210Z,12.90
2017-09-03T22:55:04.513Z,12.90
2017-09-03T22:57:32.826Z,12.90
2017-09-03T23:00:01.122Z,12.90
2017-09-03T23:02:29.793Z,12.80
2017-09-03T23:04:58.086Z,12.80
2017-09-03T23:07:26.395Z,12.80
2017-09-03T23:09:54.722Z,12.80
2017-09-03T23:12:23.102Z,12.70
2017-09-03T23:14:51.443Z,12.70
2017-09-03T23:17:19.757Z,12.70
2017-09-03T23:19:48.072Z,12.70
2017-09-03T23:22:16.406Z,12.70
2017-09-03T23:24:44.882Z,12.70
2017-09-03T23:27:13.294Z,12.60
2017-09-03T23:29:41.569Z,12.60
2017-09-03T23:32:09.922Z,12.60
2017-09-03T23:34:38.215Z,12.60
2017-09-03T23:37:06.565Z,12.60
2017-09-03T23:39:34.871Z,12.50
2017-09-03T23:42:03.215Z,12.50
2017-09-03T23:44:31.555Z,12.50
2017-09-03T23:46:59.895Z,12.50
2017-09-03T23:49:28.202Z,12.50
2017-09-03T23:51:56.627Z,12.40
2017-09-03T23:54:25.014Z,12.40
2017-09-03T23:56:53.703Z,12.40
2017-09-03T23:59:21.995Z,12.40
